Time;durP1;ratioP1;P1;durP2;ratioP2;P2;SDS_P1;SDS_P2;PMS_P1;PMS_P2;Temp;Humidity;BMP_temperature;BMP_pressure;BME280_temperature;BME280_humidity;BME280_pressure;Samples;Min_cycle;Max_cycle;Signal;HPM_P1;HPM_P2
2023/12/10 00:01:41;;;;;;;;;3.00;2.00;;;;;;;;5050774;28;45363;-70
2023/12/10 00:04:06;;;;;;;;;3.00;2.00;;;;;;;;5054182;28;45570;-72
2023/12/10 00:06:33;;;;;;;;;6.67;1.00;;;;;;;;5056084;28;45610;-69
2023/12/10 00:08:58;;;;;;;;;4.00;0.00;;;;;;;;5057840;28;45754;-72
2023/12/10 00:11:23;;;;;;;;;0.00;0.00;;;;;;;;5055497;28;45535;-72
2023/12/10 00:13:48;;;;;;;;;3.67;2.00;;;;;;;;5058264;28;46667;-72
2023/12/10 00:16:14;;;;;;;;;8.00;2.00;;;;;;;;5058393;28;46503;-71
2023/12/10 00:18:39;;;;;;;;;1.00;1.00;;;;;;;;5056285;28;45946;-71
2023/12/10 00:21:04;;;;;;;;;2.33;1.00;;;;;;;;5055203;28;45434;-72
2023/12/10 00:23:30;;;;;;;;;6.33;1.00;;;;;;;;5056456;28;45308;-70
2023/12/10 00:25:55;;;;;;;;;3.67;1.67;;;;;;;;5056629;28;45255;-71
2023/12/10 00:28:20;;;;;;;;;8.33;3.67;;;;;;;;5055214;28;46584;-70
2023/12/10 00:30:47;;;;;;;;;5.33;1.67;;;;;;;;5055844;28;45308;-69
2023/12/10 00:33:13;;;;;;;;;6.00;2.33;;;;;;;;5036327;28;45483;-71
2023/12/10 00:35:38;;;;;;;;;4.67;2.00;;;;;;;;5056401;28;45229;-70
2023/12/10 00:38:03;;;;;;;;;6.33;2.67;;;;;;;;5056365;28;46963;-69
2023/12/10 00:40:28;;;;;;;;;7.00;1.33;;;;;;;;5054812;28;45301;-71
2023/12/10 00:42:57;;;;;;;;;4.00;0.67;;;;;;;;5054913;28;45790;-69
2023/12/10 00:45:22;;;;;;;;;3.33;2.00;;;;;;;;5036350;28;45590;-69
2023/12/10 00:47:47;;;;;;;;;2.67;1.00;;;;;;;;5056494;28;46924;-71
2023/12/10 00:50:13;;;;;;;;;6.33;2.67;;;;;;;;5054898;28;46142;-68
2023/12/10 00:52:38;;;;;;;;;5.00;2.00;;;;;;;;5055246;28;45485;-69
2023/12/10 00:55:04;;;;;;;;;6.67;1.00;;;;;;;;5053745;28;46499;-69
2023/12/10 00:57:29;;;;;;;;;6.33;1.00;;;;;;;;5053828;28;45657;-69
2023/12/10 00:59:54;;;;;;;;;3.00;2.00;;;;;;;;5055549;28;45571;-69
2023/12/10 01:02:19;;;;;;;;;4.00;1.00;;;;;;;;5054944;28;45513;-72
2023/12/10 01:04:51;;;;;;;;;4.33;1.00;;;;;;;;5054653;28;45641;-69
2023/12/10 01:07:17;;;;;;;;;4.67;2.00;;;;;;;;5032587;28;48969;-70
2023/12/10 01:09:42;;;;;;;;;11.33;1.00;;;;;;;;5053443;28;46103;-69
2023/12/10 01:12:07;;;;;;;;;3.67;1.00;;;;;;;;5037474;28;45432;-69
2023/12/10 01:14:32;;;;;;;;;7.00;2.00;;;;;;;;5056355;28;45360;-70
2023/12/10 01:16:57;;;;;;;;;7.33;1.67;;;;;;;;5053008;28;45457;-69
2023/12/10 01:19:23;;;;;;;;;13.67;2.33;;;;;;;;5054212;28;45428;-71
2023/12/10 01:21:49;;;;;;;;;9.00;2.00;;;;;;;;5054295;28;45627;-72
2023/12/10 01:24:19;;;;;;;;;5.33;3.00;;;;;;;;5036554;28;45478;-71
2023/12/10 01:26:44;;;;;;;;;3.00;1.33;;;;;;;;5054115;28;46795;-70
2023/12/10 01:29:10;;;;;;;;;4.33;1.33;;;;;;;;5053761;28;45529;-70
2023/12/10 01:31:39;;;;;;;;;6.00;0.67;;;;;;;;5050053;28;45285;-68
2023/12/10 01:34:04;;;;;;;;;2.33;1.00;;;;;;;;5029814;28;45538;-71
2023/12/10 01:36:29;;;;;;;;;6.00;1.33;;;;;;;;5055732;28;46396;-70
2023/12/10 01:38:55;;;;;;;;;3.00;1.00;;;;;;;;5054015;28;45462;-71
2023/12/10 01:41:20;;;;;;;;;2.00;1.00;;;;;;;;5054854;28;45548;-69
2023/12/10 01:43:46;;;;;;;;;10.33;2.00;;;;;;;;5052923;28;45460;-69
2023/12/10 01:46:11;;;;;;;;;5.33;1.00;;;;;;;;5036499;28;46403;-70
2023/12/10 01:48:39;;;;;;;;;3.33;1.00;;;;;;;;5051948;28;45420;-72
2023/12/10 01:51:05;;;;;;;;;4.33;2.33;;;;;;;;5036509;28;45513;-70
2023/12/10 01:53:30;;;;;;;;;4.00;1.00;;;;;;;;5036501;28;45535;-69
2023/12/10 01:55:56;;;;;;;;;3.33;1.33;;;;;;;;5049340;28;46183;-70
2023/12/10 01:58:21;;;;;;;;;2.33;0.00;;;;;;;;5054440;28;45446;-70
2023/12/10 02:00:46;;;;;;;;;5.00;2.00;;;;;;;;5052623;28;46940;-70
2023/12/10 02:03:12;;;;;;;;;7.67;1.67;;;;;;;;5055601;28;45300;-70
2023/12/10 02:05:37;;;;;;;;;8.67;1.00;;;;;;;;5055585;28;45973;-70
2023/12/10 02:08:02;;;;;;;;;6.33;2.00;;;;;;;;5055825;28;45408;-68
2023/12/10 02:10:27;;;;;;;;;3.67;2.00;;;;;;;;5055209;28;45468;-69
2023/12/10 02:12:54;;;;;;;;;4.67;0.67;;;;;;;;5052481;28;45450;-69
2023/12/10 02:15:20;;;;;;;;;4.33;1.00;;;;;;;;5053045;28;45781;-69
2023/12/10 02:17:45;;;;;;;;;4.67;1.33;;;;;;;;5052789;28;45499;-69
2023/12/10 02:20:13;;;;;;;;;5.00;1.00;;;;;;;;5054072;28;46259;-69
2023/12/10 02:22:45;;;;;;;;;7.67;2.00;;;;;;;;5056437;28;45320;-70
2023/12/10 02:25:11;;;;;;;;;4.00;1.00;;;;;;;;5054309;28;45505;-69
2023/12/10 02:27:37;;;;;;;;;9.00;1.00;;;;;;;;5054051;28;45565;-72
2023/12/10 02:30:03;;;;;;;;;2.00;1.00;;;;;;;;5054617;28;45447;-69
2023/12/10 02:32:29;;;;;;;;;3.00;2.00;;;;;;;;5055631;28;45459;-71
2023/12/10 02:34:54;;;;;;;;;5.00;1.00;;;;;;;;5051541;28;45955;-70
2023/12/10 02:37:19;;;;;;;;;7.00;2.33;;;;;;;;5054750;28;45603;-69
2023/12/10 02:39:44;;;;;;;;;3.67;1.00;;;;;;;;5048674;28;45481;-70
2023/12/10 02:42:09;;;;;;;;;5.00;2.00;;;;;;;;5055314;28;45634;-72
2023/12/10 02:44:34;;;;;;;;;5.67;1.00;;;;;;;;5052439;28;46292;-69
2023/12/10 02:46:59;;;;;;;;;3.00;1.33;;;;;;;;5055481;28;45638;-68
2023/12/10 02:49:25;;;;;;;;;4.00;1.00;;;;;;;;5055339;28;45515;-69
2023/12/10 02:51:50;;;;;;;;;9.00;2.00;;;;;;;;5053797;28;46607;-70
2023/12/10 02:54:15;;;;;;;;;5.33;2.00;;;;;;;;5055029;28;45547;-69
2023/12/10 02:56:40;;;;;;;;;1.33;1.00;;;;;;;;5055210;28;45352;-72
2023/12/10 02:59:05;;;;;;;;;6.33;1.33;;;;;;;;5055131;28;45379;-71
2023/12/10 03:01:31;;;;;;;;;5.00;2.00;;;;;;;;5055486;28;45356;-70
2023/12/10 03:03:56;;;;;;;;;2.67;2.00;;;;;;;;5054502;28;45668;-69
2023/12/10 03:06:21;;;;;;;;;3.00;0.00;;;;;;;;5054971;28;45339;-68
2023/12/10 03:08:46;;;;;;;;;2.00;1.00;;;;;;;;5036649;28;45528;-69
2023/12/10 03:11:12;;;;;;;;;11.00;2.67;;;;;;;;5052952;28;45581;-71
2023/12/10 03:13:37;;;;;;;;;5.67;3.00;;;;;;;;5054715;28;46131;-69
2023/12/10 03:16:02;;;;;;;;;8.33;3.00;;;;;;;;5054841;28;45454;-72
2023/12/10 03:18:28;;;;;;;;;6.00;1.00;;;;;;;;5055315;28;45409;-69
2023/12/10 03:20:53;;;;;;;;;6.00;1.00;;;;;;;;5055010;28;45483;-69
2023/12/10 03:23:19;;;;;;;;;13.00;3.33;;;;;;;;5054520;28;46996;-69
2023/12/10 03:25:44;;;;;;;;;9.00;1.67;;;;;;;;5054542;28;45918;-69
2023/12/10 03:28:09;;;;;;;;;1.00;1.00;;;;;;;;5055354;28;45481;-70
2023/12/10 03:30:35;;;;;;;;;1.67;0.00;;;;;;;;5055565;28;45722;-69
2023/12/10 03:33:00;;;;;;;;;8.33;1.00;;;;;;;;5054694;28;46539;-69
2023/12/10 03:35:25;;;;;;;;;4.33;1.00;;;;;;;;5054510;28;45376;-69
2023/12/10 03:37:50;;;;;;;;;3.33;0.33;;;;;;;;5055242;28;45246;-70
2023/12/10 03:40:15;;;;;;;;;4.33;2.00;;;;;;;;5054667;28;45365;-69
2023/12/10 03:42:40;;;;;;;;;4.00;2.00;;;;;;;;5059004;28;45830;-69
2023/12/10 03:45:06;;;;;;;;;1.33;1.00;;;;;;;;5058723;28;45372;-70
2023/12/10 03:47:31;;;;;;;;;1.00;1.00;;;;;;;;5058066;28;45582;-69
2023/12/10 03:49:57;;;;;;;;;6.33;1.67;;;;;;;;5058951;28;45323;-69
2023/12/10 03:52:22;;;;;;;;;3.00;1.33;;;;;;;;5058244;28;45478;-70
2023/12/10 03:54:47;;;;;;;;;4.00;0.33;;;;;;;;5058468;28;45442;-69
2023/12/10 03:57:12;;;;;;;;;5.67;2.00;;;;;;;;5058709;28;45482;-69
2023/12/10 03:59:37;;;;;;;;;7.33;1.00;;;;;;;;5057067;28;45261;-69
2023/12/10 04:02:03;;;;;;;;;4.00;1.00;;;;;;;;5057715;28;46971;-69
2023/12/10 04:04:28;;;;;;;;;7.00;3.00;;;;;;;;5057501;28;45327;-71
2023/12/10 04:06:53;;;;;;;;;3.00;0.00;;;;;;;;5057697;28;45656;-69
2023/12/10 04:09:18;;;;;;;;;2.00;1.00;;;;;;;;5057301;28;45395;-69
2023/12/10 04:11:43;;;;;;;;;5.00;1.00;;;;;;;;5057738;28;46648;-69
2023/12/10 04:14:09;;;;;;;;;4.33;1.67;;;;;;;;5038864;28;45569;-69
2023/12/10 04:16:34;;;;;;;;;2.67;1.00;;;;;;;;5057852;28;45293;-69
2023/12/10 04:18:59;;;;;;;;;4.00;1.00;;;;;;;;5057594;28;45941;-69
2023/12/10 04:21:25;;;;;;;;;3.00;2.00;;;;;;;;5057842;28;45555;-69
2023/12/10 04:23:50;;;;;;;;;1.00;1.00;;;;;;;;5057581;28;45383;-69
2023/12/10 04:26:16;;;;;;;;;4.33;1.00;;;;;;;;5060549;28;45272;-71
2023/12/10 04:28:41;;;;;;;;;3.00;1.00;;;;;;;;5057453;28;45516;-71
2023/12/10 04:31:07;;;;;;;;;9.67;2.00;;;;;;;;5057199;28;46634;-69
2023/12/10 04:33:33;;;;;;;;;3.33;1.33;;;;;;;;5056296;28;45245;-70
2023/12/10 04:35:58;;;;;;;;;2.67;0.00;;;;;;;;5057489;28;45459;-70
2023/12/10 04:38:23;;;;;;;;;6.00;1.00;;;;;;;;5057945;28;45323;-69
2023/12/10 04:40:48;;;;;;;;;6.33;2.00;;;;;;;;5057236;28;45503;-70
2023/12/10 04:43:13;;;;;;;;;2.00;1.00;;;;;;;;5057495;28;45431;-71
2023/12/10 04:45:39;;;;;;;;;3.67;1.00;;;;;;;;5057422;28;45281;-69
2023/12/10 04:48:04;;;;;;;;;2.67;0.33;;;;;;;;5057805;28;45490;-69
2023/12/10 04:50:29;;;;;;;;;5.67;2.00;;;;;;;;5056291;28;46378;-69
2023/12/10 04:52:54;;;;;;;;;7.00;0.00;;;;;;;;5056448;28;45513;-70
2023/12/10 04:55:19;;;;;;;;;4.00;1.00;;;;;;;;5039710;28;45544;-71
2023/12/10 04:57:45;;;;;;;;;2.33;1.00;;;;;;;;5056551;28;45517;-69
2023/12/10 05:00:11;;;;;;;;;9.00;2.33;;;;;;;;5056941;28;46703;-70
2023/12/10 05:02:36;;;;;;;;;2.00;1.00;;;;;;;;5055650;28;45458;-69
2023/12/10 05:05:01;;;;;;;;;3.67;2.00;;;;;;;;5057313;28;45567;-71
2023/12/10 05:07:26;;;;;;;;;1.00;1.00;;;;;;;;5057154;28;45376;-69
2023/12/10 05:09:51;;;;;;;;;3.33;2.00;;;;;;;;5056123;28;45587;-70
2023/12/10 05:12:16;;;;;;;;;3.33;0.00;;;;;;;;5057341;28;45409;-68
2023/12/10 05:14:42;;;;;;;;;3.67;2.00;;;;;;;;5056802;28;45268;-69
2023/12/10 05:17:07;;;;;;;;;4.00;2.00;;;;;;;;5057117;28;45313;-69
2023/12/10 05:19:32;;;;;;;;;2.00;1.00;;;;;;;;5056767;28;46867;-69
2023/12/10 05:21:57;;;;;;;;;7.00;3.00;;;;;;;;5056453;28;45453;-70
2023/12/10 05:24:22;;;;;;;;;5.00;2.00;;;;;;;;5057554;28;45296;-70
2023/12/10 05:26:47;;;;;;;;;4.33;1.00;;;;;;;;5056712;28;45704;-69
2023/12/10 05:29:13;;;;;;;;;3.00;1.00;;;;;;;;5055477;28;47176;-70
2023/12/10 05:31:38;;;;;;;;;3.67;3.33;;;;;;;;5056930;28;45344;-70
2023/12/10 05:34:03;;;;;;;;;8.33;2.00;;;;;;;;5056593;28;45457;-69
2023/12/10 05:36:28;;;;;;;;;4.33;2.67;;;;;;;;5056211;28;45614;-69
2023/12/10 05:38:53;;;;;;;;;3.00;2.00;;;;;;;;5056658;28;46449;-70
2023/12/10 05:41:18;;;;;;;;;4.00;1.00;;;;;;;;5056773;28;45626;-71
2023/12/10 05:43:44;;;;;;;;;6.67;1.00;;;;;;;;5056994;28;45281;-69
2023/12/10 05:46:09;;;;;;;;;6.00;1.00;;;;;;;;5056405;28;45406;-69
2023/12/10 05:48:34;;;;;;;;;2.67;1.00;;;;;;;;5056177;28;45996;-70
2023/12/10 05:50:59;;;;;;;;;4.00;1.00;;;;;;;;5056497;28;45365;-70
2023/12/10 05:53:24;;;;;;;;;4.00;1.67;;;;;;;;5056508;28;45368;-69
2023/12/10 05:55:50;;;;;;;;;8.67;1.67;;;;;;;;5056223;28;45339;-70
2023/12/10 05:58:15;;;;;;;;;3.33;1.00;;;;;;;;5056276;28;45502;-69
2023/12/10 06:03:10;;;;;;;;;9.00;1.00;;;;;;;;5034459;28;45288;-69
2023/12/10 06:05:35;;;;;;;;;3.00;1.00;;;;;;;;5035596;28;45459;-69
2023/12/10 06:08:00;;;;;;;;;3.00;2.00;;;;;;;;5035540;28;46337;-69
2023/12/10 06:10:25;;;;;;;;;3.67;2.00;;;;;;;;5016587;28;45384;-69
2023/12/10 06:12:50;;;;;;;;;4.00;2.00;;;;;;;;5035534;28;45490;-71
2023/12/10 06:15:15;;;;;;;;;7.33;1.67;;;;;;;;5018227;28;45781;-69
2023/12/10 06:17:41;;;;;;;;;9.00;2.00;;;;;;;;5035778;28;45498;-69
2023/12/10 06:20:08;;;;;;;;;2.67;2.00;;;;;;;;5035239;28;45451;-69
2023/12/10 06:22:33;;;;;;;;;4.67;2.67;;;;;;;;5029798;28;45318;-69
2023/12/10 06:24:58;;;;;;;;;7.67;1.67;;;;;;;;5036233;28;45488;-71
2023/12/10 06:27:24;;;;;;;;;3.33;2.00;;;;;;;;5035567;28;45755;-70
2023/12/10 06:29:49;;;;;;;;;5.00;1.33;;;;;;;;5035794;28;45405;-69
2023/12/10 06:32:15;;;;;;;;;4.00;1.00;;;;;;;;5016998;28;45408;-69
2023/12/10 06:34:40;;;;;;;;;6.00;2.00;;;;;;;;5032535;28;45214;-69
2023/12/10 06:37:05;;;;;;;;;9.00;2.00;;;;;;;;5036239;28;45467;-70
2023/12/10 06:39:30;;;;;;;;;8.33;1.67;;;;;;;;5034495;28;45190;-69
2023/12/10 06:41:56;;;;;;;;;4.00;1.00;;;;;;;;5036268;28;45598;-69
2023/12/10 06:44:21;;;;;;;;;3.00;1.67;;;;;;;;5027983;28;45779;-69
2023/12/10 06:46:47;;;;;;;;;8.67;3.67;;;;;;;;5034187;28;45475;-68
2023/12/10 06:49:12;;;;;;;;;9.00;2.00;;;;;;;;5031208;28;45496;-69
2023/12/10 06:51:37;;;;;;;;;5.33;2.00;;;;;;;;5031621;28;45357;-69
2023/12/10 06:54:03;;;;;;;;;7.00;2.00;;;;;;;;5035450;28;45423;-69
2023/12/10 06:56:28;;;;;;;;;2.00;1.00;;;;;;;;5034575;28;45795;-69
2023/12/10 06:58:53;;;;;;;;;10.33;2.00;;;;;;;;5033948;28;45422;-69
2023/12/10 07:01:18;;;;;;;;;4.00;1.00;;;;;;;;5038136;28;45471;-71
2023/12/10 07:03:43;;;;;;;;;2.67;2.67;;;;;;;;5052820;28;45776;-69
2023/12/10 07:06:08;;;;;;;;;8.00;1.67;;;;;;;;5052488;28;45594;-69
2023/12/10 07:08:34;;;;;;;;;2.00;1.00;;;;;;;;5052956;28;45562;-70
2023/12/10 07:10:59;;;;;;;;;5.67;2.00;;;;;;;;5050587;28;45414;-71
2023/12/10 07:13:24;;;;;;;;;11.00;2.00;;;;;;;;5053840;28;45430;-70
2023/12/10 07:15:50;;;;;;;;;5.67;2.00;;;;;;;;5053291;28;46411;-69
2023/12/10 07:18:15;;;;;;;;;6.67;1.00;;;;;;;;5057406;28;45485;-68
2023/12/10 07:20:40;;;;;;;;;4.00;1.00;;;;;;;;5053649;28;45407;-69
2023/12/10 07:23:05;;;;;;;;;2.00;1.33;;;;;;;;5051740;28;45518;-69
2023/12/10 07:25:30;;;;;;;;;2.00;1.00;;;;;;;;5053933;28;45399;-69
2023/12/10 07:27:56;;;;;;;;;9.33;2.33;;;;;;;;5048134;28;45443;-68
2023/12/10 07:30:21;;;;;;;;;9.33;3.00;;;;;;;;5054040;28;45451;-69
2023/12/10 07:32:46;;;;;;;;;4.67;2.00;;;;;;;;5055134;28;45542;-72
2023/12/10 07:35:11;;;;;;;;;3.33;3.00;;;;;;;;5056941;28;45707;-69
2023/12/10 07:37:36;;;;;;;;;4.33;1.33;;;;;;;;5055849;28;45573;-71
2023/12/10 07:40:02;;;;;;;;;8.00;1.00;;;;;;;;5057979;28;45546;-69
2023/12/10 07:42:27;;;;;;;;;6.33;3.33;;;;;;;;5053634;28;46133;-69
2023/12/10 07:44:53;;;;;;;;;5.00;2.00;;;;;;;;5051473;28;46048;-71
2023/12/10 07:47:18;;;;;;;;;10.33;3.00;;;;;;;;5052929;28;45438;-71
2023/12/10 07:49:43;;;;;;;;;5.00;3.33;;;;;;;;5051733;28;45209;-72
2023/12/10 07:52:08;;;;;;;;;10.67;4.00;;;;;;;;5052794;28;45908;-71
2023/12/10 07:54:34;;;;;;;;;6.00;2.67;;;;;;;;5054645;28;46509;-70
2023/12/10 07:56:59;;;;;;;;;5.33;3.00;;;;;;;;5054022;28;45380;-69
2023/12/10 07:59:24;;;;;;;;;11.33;2.00;;;;;;;;5054573;28;45537;-72
2023/12/10 08:01:49;;;;;;;;;3.33;2.00;;;;;;;;5018299;28;1101333;-72
2023/12/10 08:04:14;;;;;;;;;5.00;2.00;;;;;;;;5058573;28;46656;-72
2023/12/10 08:06:40;;;;;;;;;2.33;2.00;;;;;;;;5057477;28;45533;-71
2023/12/10 08:09:05;;;;;;;;;8.00;1.00;;;;;;;;5034431;28;45352;-69
2023/12/10 08:11:31;;;;;;;;;5.67;1.33;;;;;;;;5055551;28;45543;-70
2023/12/10 08:13:56;;;;;;;;;4.00;0.33;;;;;;;;5056366;28;45810;-70
2023/12/10 08:16:22;;;;;;;;;2.67;2.00;;;;;;;;5056408;28;45533;-68
2023/12/10 08:18:47;;;;;;;;;9.00;3.67;;;;;;;;5054520;28;46905;-70
2023/12/10 08:21:14;;;;;;;;;11.33;3.00;;;;;;;;5055166;28;45955;-70
2023/12/10 08:23:39;;;;;;;;;8.00;2.00;;;;;;;;5044462;28;46676;-69
2023/12/10 08:26:04;;;;;;;;;3.00;2.00;;;;;;;;5043522;28;45496;-68
2023/12/10 08:28:29;;;;;;;;;4.33;1.00;;;;;;;;5044072;28;45542;-70
2023/12/10 08:30:55;;;;;;;;;5.67;1.00;;;;;;;;5047613;28;45388;-69
2023/12/10 08:33:20;;;;;;;;;5.00;3.00;;;;;;;;5054132;28;46441;-69
2023/12/10 08:35:45;;;;;;;;;4.67;2.00;;;;;;;;5049091;28;45564;-69
2023/12/10 08:38:10;;;;;;;;;7.00;2.00;;;;;;;;5043546;28;45355;-69
2023/12/10 08:40:35;;;;;;;;;5.67;3.00;;;;;;;;5042847;28;45237;-72
2023/12/10 08:43:01;;;;;;;;;3.33;2.00;;;;;;;;5046968;28;45836;-74
2023/12/10 08:45:26;;;;;;;;;3.67;1.67;;;;;;;;5045751;28;45503;-76
2023/12/10 08:47:52;;;;;;;;;7.33;2.00;;;;;;;;5048530;28;45503;-74
2023/12/10 08:50:17;;;;;;;;;1.67;1.00;;;;;;;;5047503;28;45308;-72
2023/12/10 08:52:42;;;;;;;;;4.67;1.33;;;;;;;;5032265;28;47810;-72
2023/12/10 08:55:07;;;;;;;;;5.00;2.00;;;;;;;;5057397;28;45323;-72
2023/12/10 08:57:32;;;;;;;;;4.67;1.33;;;;;;;;5062728;28;45483;-72
2023/12/10 09:00:00;;;;;;;;;7.00;1.33;;;;;;;;5054507;28;45571;-75
2023/12/10 09:02:26;;;;;;;;;4.67;0.33;;;;;;;;5060471;28;46676;-74
2023/12/10 09:04:51;;;;;;;;;4.00;2.67;;;;;;;;5058818;28;46193;-74
2023/12/10 09:07:16;;;;;;;;;8.33;2.67;;;;;;;;5059924;28;45480;-73
2023/12/10 09:09:41;;;;;;;;;4.33;2.00;;;;;;;;5056357;28;45673;-75
2023/12/10 09:12:06;;;;;;;;;10.00;2.00;;;;;;;;5054772;28;46764;-72
2023/12/10 09:14:32;;;;;;;;;3.00;3.00;;;;;;;;5057081;28;45972;-75
2023/12/10 09:16:58;;;;;;;;;7.00;2.00;;;;;;;;5056098;28;45425;-71
2023/12/10 09:19:24;;;;;;;;;13.00;2.00;;;;;;;;5057727;28;45570;-71
2023/12/10 09:21:50;;;;;;;;;8.00;2.33;;;;;;;;5050062;28;46716;-71
2023/12/10 09:24:15;;;;;;;;;4.33;2.00;;;;;;;;5032397;28;45452;-77
2023/12/10 09:26:40;;;;;;;;;4.33;3.00;;;;;;;;5056573;28;45571;-78
2023/12/10 09:29:05;;;;;;;;;2.67;2.67;;;;;;;;5057163;28;45573;-78
2023/12/10 09:31:31;;;;;;;;;5.00;1.33;;;;;;;;5039580;28;47772;-77
2023/12/10 09:33:56;;;;;;;;;10.67;4.00;;;;;;;;5050591;28;46053;-77
2023/12/10 09:36:21;;;;;;;;;4.33;2.00;;;;;;;;5053989;28;45448;-76
2023/12/10 09:38:46;;;;;;;;;5.33;1.00;;;;;;;;5054479;28;45447;-68
2023/12/10 09:41:11;;;;;;;;;6.00;2.00;;;;;;;;5054514;28;46567;-68
2023/12/10 09:43:36;;;;;;;;;3.33;1.00;;;;;;;;5059781;28;45442;-69
2023/12/10 09:46:03;;;;;;;;;4.33;2.00;;;;;;;;5059117;28;45645;-69
2023/12/10 09:48:29;;;;;;;;;10.00;3.00;;;;;;;;5059403;28;46904;-70
2023/12/10 09:50:54;;;;;;;;;9.00;2.00;;;;;;;;5054408;28;46408;-69
2023/12/10 09:53:21;;;;;;;;;8.33;2.67;;;;;;;;5056021;28;45511;-68
2023/12/10 09:55:47;;;;;;;;;8.00;2.00;;;;;;;;5042526;28;45372;-69
2023/12/10 09:58:12;;;;;;;;;8.00;2.67;;;;;;;;5046818;28;45485;-70
2023/12/10 10:00:37;;;;;;;;;8.00;3.00;;;;;;;;5056116;28;47506;-70
2023/12/10 10:03:03;;;;;;;;;11.33;3.00;;;;;;;;5057440;28;45482;-68
2023/12/10 10:05:28;;;;;;;;;10.33;2.67;;;;;;;;5058248;28;45433;-70
2023/12/10 10:07:53;;;;;;;;;8.67;3.67;;;;;;;;5060174;28;45566;-68
2023/12/10 10:10:19;;;;;;;;;4.00;2.00;;;;;;;;5057496;28;45914;-70
2023/12/10 10:12:44;;;;;;;;;5.67;1.67;;;;;;;;5055039;28;45341;-68
2023/12/10 10:15:10;;;;;;;;;5.67;2.00;;;;;;;;5055919;28;45399;-69
2023/12/10 10:17:36;;;;;;;;;9.00;3.00;;;;;;;;5038282;28;46187;-68
2023/12/10 10:20:04;;;;;;;;;6.67;3.00;;;;;;;;5035478;28;46713;-69
2023/12/10 10:22:30;;;;;;;;;4.00;3.00;;;;;;;;5059911;28;45439;-70
2023/12/10 10:24:56;;;;;;;;;14.00;2.33;;;;;;;;5058791;28;45217;-70
2023/12/10 10:27:21;;;;;;;;;5.00;2.00;;;;;;;;5055673;28;45288;-69
2023/12/10 10:29:52;;;;;;;;;4.00;3.00;;;;;;;;5058052;28;45854;-69
2023/12/10 10:32:18;;;;;;;;;6.00;2.00;;;;;;;;5055684;28;45277;-70
2023/12/10 10:34:47;;;;;;;;;2.00;0.67;;;;;;;;5056580;28;45417;-70
2023/12/10 10:37:12;;;;;;;;;3.67;2.00;;;;;;;;5055579;28;45630;-70
2023/12/10 10:39:37;;;;;;;;;7.00;2.00;;;;;;;;5055161;28;45552;-69
2023/12/10 10:42:06;;;;;;;;;4.00;2.33;;;;;;;;5055955;28;45459;-69
2023/12/10 10:44:32;;;;;;;;;5.33;3.67;;;;;;;;5056405;28;45304;-68
2023/12/10 10:46:58;;;;;;;;;2.67;2.00;;;;;;;;5056104;28;45592;-69
2023/12/10 10:49:23;;;;;;;;;3.67;1.33;;;;;;;;5055493;28;46597;-69
2023/12/10 10:51:48;;;;;;;;;5.00;2.00;;;;;;;;5046203;28;45403;-69
2023/12/10 10:54:14;;;;;;;;;4.00;2.00;;;;;;;;5048132;28;45488;-69
2023/12/10 10:56:39;;;;;;;;;6.67;3.00;;;;;;;;5054291;28;45453;-69
2023/12/10 10:59:24;;;;;;;;;5.00;0.67;;;;;;;;5055128;28;45539;-69
2023/12/10 11:01:50;;;;;;;;;5.00;2.00;;;;;;;;5054743;28;45387;-69
2023/12/10 11:04:15;;;;;;;;;3.33;2.00;;;;;;;;5057842;28;45414;-70
2023/12/10 11:06:41;;;;;;;;;5.33;1.00;;;;;;;;5053695;28;45442;-70
2023/12/10 11:09:07;;;;;;;;;4.67;1.33;;;;;;;;5058656;28;47057;-70
2023/12/10 11:11:39;;;;;;;;;5.67;1.00;;;;;;;;5058850;28;45950;-69
2023/12/10 11:14:08;;;;;;;;;5.00;1.00;;;;;;;;5050459;28;45520;-70
2023/12/10 11:16:35;;;;;;;;;3.33;2.00;;;;;;;;5063676;28;45818;-69
2023/12/10 11:19:01;;;;;;;;;4.33;1.67;;;;;;;;5056226;28;46765;-70
2023/12/10 11:21:26;;;;;;;;;8.33;2.67;;;;;;;;5041432;28;46342;-70
2023/12/10 11:23:51;;;;;;;;;4.00;2.00;;;;;;;;5038752;28;45339;-70
2023/12/10 11:26:16;;;;;;;;;5.33;3.33;;;;;;;;5059999;28;45897;-69
2023/12/10 11:28:42;;;;;;;;;3.33;1.00;;;;;;;;5053039;28;45770;-69
2023/12/10 11:31:07;;;;;;;;;6.67;1.33;;;;;;;;5055261;28;45597;-69
2023/12/10 11:33:38;;;;;;;;;4.67;2.00;;;;;;;;5056510;28;45516;-68
2023/12/10 11:36:03;;;;;;;;;5.67;3.33;;;;;;;;5058551;28;45285;-68
2023/12/10 11:38:28;;;;;;;;;7.33;3.00;;;;;;;;5057541;28;45891;-68
2023/12/10 11:40:53;;;;;;;;;4.33;2.67;;;;;;;;5058372;28;45424;-69
2023/12/10 11:43:19;;;;;;;;;6.33;1.00;;;;;;;;5038177;28;45483;-69
2023/12/10 11:45:44;;;;;;;;;5.00;2.00;;;;;;;;5056060;28;45740;-68
2023/12/10 11:48:09;;;;;;;;;5.33;1.33;;;;;;;;5055267;28;45441;-68
2023/12/10 11:50:36;;;;;;;;;4.00;2.00;;;;;;;;5062854;28;45501;-69
2023/12/10 11:53:02;;;;;;;;;2.00;2.00;;;;;;;;5058823;28;45423;-68
2023/12/10 11:55:28;;;;;;;;;7.67;4.00;;;;;;;;5055754;28;45636;-69
2023/12/10 11:57:55;;;;;;;;;2.33;2.00;;;;;;;;5062445;28;46388;-68
2023/12/10 12:00:20;;;;;;;;;6.00;1.00;;;;;;;;5062449;28;45505;-69
2023/12/10 12:02:46;;;;;;;;;4.00;2.33;;;;;;;;5056741;28;45249;-69
2023/12/10 12:05:12;;;;;;;;;11.00;2.00;;;;;;;;5059709;28;45351;-68
2023/12/10 12:07:38;;;;;;;;;5.33;1.67;;;;;;;;5059499;28;46522;-69
2023/12/10 12:10:04;;;;;;;;;4.00;2.00;;;;;;;;5062488;28;45446;-68
2023/12/10 12:12:29;;;;;;;;;4.33;1.33;;;;;;;;5059983;28;45268;-68
2023/12/10 12:14:55;;;;;;;;;4.00;3.00;;;;;;;;5063553;28;45387;-68
2023/12/10 12:17:21;;;;;;;;;11.00;2.00;;;;;;;;5061640;28;45670;-69
2023/12/10 12:19:46;;;;;;;;;7.33;2.00;;;;;;;;5066514;28;45473;-69
2023/12/10 12:22:11;;;;;;;;;5.33;3.00;;;;;;;;5064464;28;45517;-68
2023/12/10 12:24:39;;;;;;;;;2.33;1.00;;;;;;;;5059041;28;45471;-69
2023/12/10 12:27:05;;;;;;;;;5.00;2.00;;;;;;;;5061449;28;46945;-68
2023/12/10 12:29:30;;;;;;;;;4.33;2.33;;;;;;;;5063752;28;45418;-68
2023/12/10 12:31:55;;;;;;;;;9.67;2.00;;;;;;;;5041934;28;45431;-69
2023/12/10 12:34:20;;;;;;;;;6.67;2.00;;;;;;;;5057295;28;45422;-69
2023/12/10 12:36:46;;;;;;;;;7.33;3.00;;;;;;;;5058581;28;45991;-69
2023/12/10 12:39:11;;;;;;;;;9.33;3.00;;;;;;;;5060593;28;45504;-68
2023/12/10 12:41:36;;;;;;;;;5.67;1.67;;;;;;;;5040357;28;45312;-69
2023/12/10 12:44:01;;;;;;;;;5.00;3.33;;;;;;;;5060754;28;45502;-69
2023/12/10 12:46:26;;;;;;;;;7.67;3.33;;;;;;;;5058305;28;45411;-68
2023/12/10 12:48:51;;;;;;;;;7.33;2.33;;;;;;;;5061378;28;45545;-68
2023/12/10 12:51:17;;;;;;;;;8.00;4.00;;;;;;;;5064202;28;45170;-68
2023/12/10 12:53:42;;;;;;;;;12.33;3.00;;;;;;;;5062360;28;45306;-67
2023/12/10 12:56:08;;;;;;;;;7.33;3.33;;;;;;;;5060438;28;46499;-69
2023/12/10 12:58:33;;;;;;;;;4.00;2.33;;;;;;;;5065620;28;45587;-69
2023/12/10 13:00:58;;;;;;;;;4.67;2.00;;;;;;;;5062679;28;45326;-68
2023/12/10 13:03:23;;;;;;;;;8.00;4.00;;;;;;;;5057462;28;45440;-68
2023/12/10 13:05:48;;;;;;;;;8.33;3.00;;;;;;;;5059271;28;45451;-68
2023/12/10 13:08:13;;;;;;;;;5.67;1.00;;;;;;;;5059892;28;45390;-69
2023/12/10 13:10:39;;;;;;;;;10.00;1.00;;;;;;;;5057780;28;45614;-69
2023/12/10 13:13:04;;;;;;;;;7.67;3.33;;;;;;;;5061645;28;45350;-68
2023/12/10 13:15:29;;;;;;;;;5.00;2.00;;;;;;;;5039843;28;47397;-69
2023/12/10 13:17:54;;;;;;;;;6.33;3.33;;;;;;;;5063895;28;45309;-68
2023/12/10 13:20:20;;;;;;;;;3.00;2.00;;;;;;;;5061132;28;45350;-69
2023/12/10 13:22:45;;;;;;;;;5.00;2.00;;;;;;;;5062428;28;45354;-68
2023/12/10 13:25:10;;;;;;;;;5.00;2.00;;;;;;;;5057024;28;45658;-68
2023/12/10 13:27:36;;;;;;;;;12.00;4.00;;;;;;;;5064108;28;45414;-68
2023/12/10 13:30:01;;;;;;;;;10.00;4.00;;;;;;;;5057424;28;45304;-68
2023/12/10 13:32:27;;;;;;;;;9.33;3.33;;;;;;;;5057005;28;45490;-68
2023/12/10 13:34:52;;;;;;;;;7.00;2.00;;;;;;;;5056857;28;45570;-68
2023/12/10 13:37:18;;;;;;;;;7.67;2.33;;;;;;;;5058650;28;45514;-68
2023/12/10 13:39:43;;;;;;;;;11.33;3.00;;;;;;;;5058369;28;45698;-68
2023/12/10 13:42:08;;;;;;;;;5.00;2.00;;;;;;;;5058324;28;45530;-68
2023/12/10 13:44:34;;;;;;;;;6.33;3.00;;;;;;;;5058653;28;46236;-68
2023/12/10 13:46:59;;;;;;;;;10.00;2.67;;;;;;;;5060054;28;45496;-68
2023/12/10 13:49:24;;;;;;;;;8.00;2.00;;;;;;;;5062641;28;45267;-69
2023/12/10 13:51:49;;;;;;;;;5.67;4.00;;;;;;;;5062816;28;45449;-68
2023/12/10 13:54:16;;;;;;;;;9.00;3.00;;;;;;;;5062605;28;45582;-69
2023/12/10 13:56:41;;;;;;;;;13.00;5.00;;;;;;;;5057298;28;45348;-68
2023/12/10 13:59:06;;;;;;;;;4.00;3.00;;;;;;;;5066424;28;45363;-69
2023/12/10 14:01:31;;;;;;;;;3.33;2.00;;;;;;;;5041707;28;45622;-69
2023/12/10 14:03:57;;;;;;;;;8.33;1.33;;;;;;;;5062060;28;45567;-68
2023/12/10 14:06:22;;;;;;;;;5.00;2.00;;;;;;;;5058453;28;45511;-68
2023/12/10 14:08:47;;;;;;;;;9.00;2.33;;;;;;;;5059065;28;45440;-68
2023/12/10 14:11:12;;;;;;;;;2.33;2.00;;;;;;;;5056575;28;45546;-69
2023/12/10 14:13:37;;;;;;;;;4.00;2.00;;;;;;;;5061101;28;46613;-68
2023/12/10 14:16:03;;;;;;;;;5.00;4.00;;;;;;;;5059521;28;45573;-68
2023/12/10 14:18:28;;;;;;;;;5.00;3.67;;;;;;;;5065464;28;45586;-69
2023/12/10 14:20:53;;;;;;;;;6.00;3.67;;;;;;;;5058895;28;45505;-68
2023/12/10 14:23:18;;;;;;;;;5.00;1.00;;;;;;;;5060898;28;45925;-68
2023/12/10 14:25:43;;;;;;;;;11.33;4.00;;;;;;;;5056823;28;45432;-68
2023/12/10 14:28:09;;;;;;;;;5.00;3.00;;;;;;;;5062873;28;45533;-70
2023/12/10 14:30:34;;;;;;;;;4.33;1.00;;;;;;;;5056299;28;46929;-68
2023/12/10 14:32:59;;;;;;;;;6.00;1.00;;;;;;;;5055307;28;45521;-67
2023/12/10 14:35:24;;;;;;;;;5.00;3.00;;;;;;;;5056797;28;45298;-68